Wetterdaten: aktuell Mittwoch, 19.09.2018 21:00
Datum Zeit Temp. A. Feuchte A. Luftdruck Regen Wind Richtung Richtung Sonnenschein ET UV Solar Taupunkt Windchill Windben
19.09.2018 21:00 23,5 C 51 % 1017,6 hPa 0,0 l/m 0,6 km/h (0 Bft) S 187 0 min 0,025 mm 0,0 UV-I 0 W/m 12,8 C 23,5 C 4,8 km/h (1 Bft)
19.09.2018 20:00 25,2 C 47 % 1017,4 hPa 0,0 l/m 0,6 km/h (0 Bft) S 188 0 min 0,051 mm 0,0 UV-I 0 W/m 13,1 C 25,2 C 3,2 km/h (1 Bft)
19.09.2018 19:00 27,3 C 43 % 1017,1 hPa 0,0 l/m 0,1 km/h (0 Bft) S-SW 208 0 min 0,153 mm 0,0 UV-I 9 W/m 13,6 C 27,3 C 1,6 km/h (1 Bft)
19.09.2018 18:00 28,9 C 39 % 1017,0 hPa 0,0 l/m 1,3 km/h (1 Bft) W-SW 257 35 min 0,279 mm 0,0 UV-I 46 W/m 13,5 C 28,9 C 6,4 km/h (2 Bft)
19.09.2018 17:00 29,8 C 37 % 1016,9 hPa 0,0 l/m 4,1 km/h (1 Bft) W-SW 237 60 min 0,381 mm 0,7 UV-I 265 W/m 13,5 C 29,8 C 11,3 km/h (2 Bft)
19.09.2018 16:00 30,1 C 37 % 1017,0 hPa 0,0 l/m 3,5 km/h (1 Bft) NO 44 60 min 0,432 mm 1,4 UV-I 397 W/m 13,8 C 30,1 C 11,3 km/h (2 Bft)
19.09.2018 15:00 29,9 C 37 % 1017,5 hPa 0,0 l/m 5,9 km/h (2 Bft) S 171 60 min 0,432 mm 2,2 UV-I 499 W/m 13,6 C 29,9 C 12,9 km/h (3 Bft)
19.09.2018 14:00 29,5 C 39 % 1017,8 hPa 0,0 l/m 3,4 km/h (1 Bft) O-SO 117 60 min 0,406 mm 2,9 UV-I 570 W/m 14,1 C 29,5 C 9,7 km/h (2 Bft)
19.09.2018 13:00 27,4 C 48 % 1018,4 hPa 0,0 l/m 3,9 km/h (1 Bft) SW 235 60 min 0,381 mm 3,1 UV-I 577 W/m 15,4 C 27,4 C 12,9 km/h (3 Bft)
19.09.2018 12:00 25,3 C 52 % 1019,0 hPa 0,0 l/m 0,4 km/h (0 Bft) S 174 60 min 0,330 mm 2,8 UV-I 547 W/m 14,7 C 25,3 C 4,8 km/h (1 Bft)
19.09.2018 11:00 23,0 C 61 % 1019,7 hPa 0,0 l/m 1,0 km/h (0 Bft) S 171 40 min 0,050 mm 1,9 UV-I 461 W/m 15,1 C 23,0 C 4,8 km/h (1 Bft)
19.09.2018 10:00 19,1 C 77 % 1019,8 hPa 0,0 l/m 0,0 km/h (0 Bft) SW 227 0 min 0,050 mm 1,0 UV-I 120 W/m 15,0 C 19,1 C 0,0 km/h (0 Bft)
19.09.2018 09:00 17,6 C 75 % 1019,4 hPa 0,0 l/m 0,0 km/h (0 Bft) SW 234 0 min 0,051 mm 0,0 UV-I 70 W/m 13,1 C 17,6 C 0,0 km/h (0 Bft)
19.09.2018 08:00 14,8 C 82 % 1018,6 hPa 0,0 l/m 0,0 km/h (0 Bft) SW 234 0 min 0,026 mm 0,0 UV-I 47 W/m 11,8 C 14,8 C 0,0 km/h (0 Bft)
19.09.2018 07:00 14,1 C 81 % 1018,0 hPa 0,0 l/m 0,0 km/h (0 Bft) SW 234 0 min 0,002 mm 0,0 UV-I 11 W/m 10,9 C 14,1 C 0,0 km/h (0 Bft)
19.09.2018 06:00 14,9 C 79 % 1017,5 hPa 0,0 l/m 0,0 km/h (0 Bft) SW 234 0 min 0,002 mm 0,0 UV-I 0 W/m 11,3 C 14,9 C 0,0 km/h (0 Bft)
19.09.2018 05:00 16,0 C 74 % 1016,8 hPa 0,0 l/m 0,0 km/h (0 Bft) N 0 0 min 0,025 mm 0,0 UV-I 0 W/m 11,4 C 16,0 C 0,0 km/h (0 Bft)
19.09.2018 04:00 16,3 C 73 % 1016,5 hPa 0,0 l/m 0,0 km/h (0 Bft) SW 225 0 min 0,025 mm 0,0 UV-I 0 W/m 11,4 C 16,3 C 1,6 km/h (1 Bft)
19.09.2018 03:00 16,7 C 70 % 1015,7 hPa 0,0 l/m 0,0 km/h (0 Bft) SW 225 0 min 0,025 mm 0,0 UV-I 0 W/m 11,2 C 16,7 C 1,6 km/h (1 Bft)
19.09.2018 02:00 17,6 C 65 % 1015,3 hPa 0,0 l/m 0,0 km/h (0 Bft) SW 225 0 min 0,025 mm 0,0 UV-I 0 W/m 10,9 C 17,6 C 1,6 km/h (1 Bft)
19.09.2018 01:00 19,2 C 59 % 1015,2 hPa 0,0 l/m 0,0 km/h (0 Bft) N 0 0 min 0,025 mm 0,0 UV-I 0 W/m 11,0 C 19,2 C 0,0 km/h (0 Bft)
19.09.2018 00:00 18,8 C 60 % 1015,1 hPa 0,0 l/m 0,0 km/h (0 Bft) SW 225 0 min 0,025 mm 0,0 UV-I 0 W/m 10,9 C 18,8 C 1,6 km/h (1 Bft)
_ Min-Zeit 06:55 14:20 01:15 - 00:00 - - - - - - 01:50 07:00 00:05
Minimum _ 14,1 C 37 % 1015,0 hPa - 0,0 km/h (0 Bft) - - - - - - 10,7 C 14,1 C 0,0 km/h (0 Bft)
_ Max-Zeit 15:10 07:15 09:55 00:00 15:25 - - 10:25 15:00 12:30 13:10 10:45 15:10 15:25
Maximum _ 30,4 C 82 % 1019,8 hPa 0,0 l/m 11,1 km/h
SW (2 Bft)
- - 5 min 0,432 mm 3,1 UV-I 578 W/m 15,5 C 30,4 C 24,1 km/h
W-SW (4 Bft)
Durchschnitt _ 22,1 C 59 % 1017,5 hPa #0,0 l/m 1,6 km/h (1 Bft) W-SW - #7:15 h #2,921 mm 2,0 UV-I 296 W/m 12,9 C 22,1 C 5,1 km/h (1 Bft)